CDT,Max TemperatureF,Mean TemperatureF,Min TemperatureF,Max Dew PointF,MeanDew PointF,Min DewpointF,Max Humidity, Mean Humidity, Min Humidity, Max Sea Level PressureIn, Mean Sea Level PressureIn, Min Sea Level PressureIn, Max VisibilityMiles, Mean VisibilityMiles, Min VisibilityMiles, Max Wind SpeedMPH, Mean Wind SpeedMPH, Max Gust SpeedMPH,PrecipitationIn, CloudCover, Events, WindDirDegrees
2013-6-1,73,67,61,68,64,60,99,88,75,29.82,29.77,29.71,10,10,1,23,12,36,0.00,6,,201
2013-6-2,73,54,45,61,52,43,99,88,73,30.04,29.91,29.74,10,10,10,17,11,20,0.00,5,,315
2013-6-3,73,53,40,49,44,40,100,71,39,30.12,30.07,30.03,10,10,10,9,4,,0.00,0,,4
2013-6-4,73,58,44,50,46,42,99,62,35,30.17,30.12,30.09,10,10,5,12,3,16,0.00,0,,104
2013-6-5,76,66,55,52,48,42,73,52,36,30.11,30.01,29.92,10,10,10,14,6,,0.00,1,,101
2013-6-6,72,62,53,55,48,39,95,60,41,29.92,29.87,29.84,10,10,10,15,9,16,0.00,3,,37
2013-6-7,76,62,52,57,51,40,99,72,45,29.92,29.89,29.86,10,10,7,17,6,22,0.00,3,,9
2013-6-8,77,64,52,54,49,42,95,61,37,30.01,29.96,29.91,10,10,7,12,3,16,0.00,3,,137
2013-6-9,82,70,57,66,57,50,100,65,33,30.02,29.94,29.85,10,9,3,15,5,22,0.00,4,,144
2013-6-10,82,68,62,68,65,62,100,92,66,29.88,29.79,29.75,10,8,2,13,7,17,0.00,6,,254
2013-6-11,84,72,59,70,63,59,100,83,42,29.95,29.89,29.84,10,6,0,26,4,40,0.00,3,,227
2013-6-12,86,76,65,77,70,65,100,91,63,29.91,29.79,29.63,10,7,1,20,4,33,0.00,2,,142
2013-6-13,86,64,56,67,59,52,100,82,56,30.02,29.86,29.54,10,9,3,23,13,31,0.00,2,,340
2013-6-14,76,64,51,62,56,51,100,79,45,30.12,30.05,30.00,10,10,10,12,5,,0.00,0,,1
2013-6-15,72,64,57,68,64,58,99,91,71,30.09,30.01,29.91,10,10,3,13,3,,0.00,4,,167
2013-6-16,80,73,66,69,67,64,98,83,64,29.94,29.91,29.88,10,10,10,22,10,29,0.00,4,,246
2013-6-17,85,74,63,68,60,50,99,66,30,29.95,29.92,29.87,10,10,5,10,5,,0.00,0,,232
2013-6-18,85,68,58,64,61,55,99,80,55,30.05,29.96,29.89,10,10,10,17,6,22,0.00,2,,9
2013-6-19,85,65,53,56,50,48,91,59,37,30.15,30.11,30.05,10,10,10,8,4,,0.00,0,,69
2013-6-20,85,71,59,68,60,52,92,68,47,30.18,30.15,30.11,10,10,10,9,3,,0.00,3,,130
2013-6-21,87,76,65,70,64,58,100,78,38,30.18,30.11,29.95,10,10,0,28,7,33,0.00,1,,176
2013-6-22,87,76,66,76,70,66,98,85,63,30.10,30.05,29.98,10,10,7,14,7,18,0.00,2,,212
2013-6-23,87,75,65,70,67,64,100,77,50,30.08,30.04,29.98,10,9,3,15,6,21,0.00,0,,203
2013-6-24,87,75,66,73,68,66,99,86,60,30.10,30.02,29.94,10,9,0,18,7,45,0.00,1,,202
2013-6-25,87,76,66,77,72,66,99,88,66,29.99,29.91,29.82,10,8,0,20,6,25,0.00,3,,210
2013-6-26,79,71,63,74,69,64,100,94,83,29.91,29.81,29.73,10,8,0,18,7,24,0.00,5,,150
2013-6-27,87,76,65,75,70,65,100,88,62,29.79,29.75,29.69,10,7,0,12,3,,0.00,4,,293
2013-6-28,87,71,63,68,65,60,100,83,53,29.70,29.65,29.60,10,10,7,21,6,30,0.00,2,,279
2013-6-29,87,67,60,67,64,61,100,95,71,29.73,29.63,29.58,10,8,1,16,4,18,0.00,5,,348
2013-6-30,87,69,62,67,63,60,100,91,57,29.94,29.85,29.73,10,9,2,16,8,23,0.00,7,,24